North Manheim, Pennsylvania
Current Conditions -  °F | °C
As of 12:02 PM on Monday 24 Nov 2014 (Local Time) from KMUI Reporting Station
Broken Clouds Broken Clouds  
Wind Chill: 70°   Ceiling: 3000
Heat Index: 70°   Visibility: 10mi
Dew Point: 57°   Wind: 16mph
Humidity: 64%   Direction: 190°S
Pressure: 29.57"   Gusts: 26mph
Location:  40.6882°N, 76.264°W
Report Text: KMUI 241702Z AUTO 19014G23KT 10SM BKN030 BKN035 21/14 A2957 RMK AO2 $
Loading
Personal Weather Stations






























Interactive Weather Map New forecast layout! Learn more

10-Day Weather Forecast

Advertisements
Track Severe Weather on mobile